Time;durP1;ratioP1;P1;durP2;ratioP2;P2;SDS_P1;SDS_P2;PMS_P1;PMS_P2;Temp;Humidity;BMP_temperature;BMP_pressure;BME280_temperature;BME280_humidity;BME280_pressure;Samples;Min_cycle;Max_cycle;Signal;HPM_P1;HPM_P2
2022/12/13 00:00:13;;;;;;;1.67;1.40;;;;;;;-1.94;79.78;99204.69;5014854;28;20044;-66
2022/12/13 00:02:42;;;;;;;2.35;2.15;;;;;;;-1.88;79.95;99197.47;5014869;28;20041;-66
2022/12/13 00:05:11;;;;;;;0.68;0.68;;;;;;;-1.91;80.11;99199.84;5014768;28;20042;-65
2022/12/13 00:07:43;;;;;;;0.60;0.60;;;;;;;-1.85;80.22;99192.59;5015062;28;20046;-65
2022/12/13 00:10:13;;;;;;;3.22;2.15;;;;;;;-1.81;80.34;99198.56;5015005;28;20404;-66
2022/12/13 00:12:41;;;;;;;0.82;0.82;;;;;;;-1.90;80.32;99201.56;5015260;28;20492;-66
2022/12/13 00:15:11;;;;;;;3.20;2.05;;;;;;;-2.02;79.84;99198.56;5014612;28;20181;-66
2022/12/13 00:17:40;;;;;;;2.42;1.90;;;;;;;-2.02;79.96;99198.56;5014900;28;20492;-66
2022/12/13 00:20:09;;;;;;;2.40;2.00;;;;;;;-1.97;80.45;99202.09;5015005;28;20092;-66
2022/12/13 00:22:38;;;;;;;0.77;0.77;;;;;;;-1.93;80.35;99196.44;5014472;28;20038;-66
2022/12/13 00:25:09;;;;;;;1.57;1.47;;;;;;;-1.86;80.33;99200.88;5014748;28;20038;-65
2022/12/13 00:27:37;;;;;;;2.47;2.28;;;;;;;-1.81;80.29;99194.41;5014394;28;20627;-66
2022/12/13 00:30:07;;;;;;;2.35;2.15;;;;;;;-1.78;80.37;99202.03;5014654;28;20044;-65
2022/12/13 00:32:35;;;;;;;0.93;0.93;;;;;;;-1.74;80.38;99206.38;5014618;28;20030;-67
2022/12/13 00:35:05;;;;;;;1.10;1.10;;;;;;;-1.73;80.39;99198.09;5014541;28;20034;-65
2022/12/13 00:37:34;;;;;;;0.70;0.70;;;;;;;-1.72;79.97;99194.78;5014584;28;20054;-66
2022/12/13 00:40:03;;;;;;;0.73;0.73;;;;;;;-1.77;80.06;99201.22;5014146;28;20124;-66
2022/12/13 00:42:35;;;;;;;1.30;1.23;;;;;;;-1.76;80.11;99207.09;5014143;28;20491;-66
2022/12/13 00:45:04;;;;;;;8.95;2.60;;;;;;;-1.81;79.97;99201.91;5014159;28;20061;-65
2022/12/13 00:47:33;;;;;;;0.60;0.60;;;;;;;-1.83;79.87;99206.00;5014509;28;20034;-66
2022/12/13 00:50:02;;;;;;;0.75;0.75;;;;;;;-1.82;80.07;99210.19;5013883;28;20042;-66
2022/12/13 00:52:31;;;;;;;0.60;0.60;;;;;;;-1.79;80.24;99207.81;5013340;28;20042;-65
2022/12/13 00:54:59;;;;;;;1.30;1.23;;;;;;;-1.81;79.84;99213.56;5013986;28;20538;-66
2022/12/13 00:57:28;;;;;;;2.05;1.45;;;;;;;-1.94;79.92;99217.19;5013912;28;20048;-65
2022/12/13 00:59:58;;;;;;;1.55;1.40;;;;;;;-1.96;80.30;99222.94;5014387;28;20034;-65
2022/12/13 01:02:27;;;;;;;1.08;1.08;;;;;;;-1.91;80.18;99221.47;5013967;28;20559;-65
2022/12/13 01:04:55;;;;;;;0.90;0.90;;;;;;;-1.89;80.44;99225.75;5013823;28;20056;-66
2022/12/13 01:07:24;;;;;;;0.53;0.53;;;;;;;-1.88;80.63;99227.47;5013837;28;20053;-66
2022/12/13 01:09:53;;;;;;;1.77;1.67;;;;;;;-1.85;80.48;99221.75;5013744;28;20303;-66
2022/12/13 01:12:21;;;;;;;0.50;0.50;;;;;;;-1.82;80.68;99231.88;5014087;28;20042;-66
2022/12/13 01:14:51;;;;;;;1.77;1.65;;;;;;;-1.78;81.07;99224.56;5014068;28;20070;-66
2022/12/13 01:17:25;;;;;;;0.60;0.60;;;;;;;-1.73;80.80;99233.09;5013788;28;20108;-66
2022/12/13 01:19:54;;;;;;;1.95;1.38;;;;;;;-1.71;81.02;99234.00;5013718;28;20054;-66
2022/12/13 01:22:23;;;;;;;3.20;2.72;;;;;;;-1.69;80.70;99229.91;5013578;28;20045;-66
2022/12/13 01:24:51;;;;;;;2.50;2.30;;;;;;;-1.67;80.95;99229.97;5013650;28;20038;-65
2022/12/13 01:27:21;;;;;;;1.42;1.33;;;;;;;-1.74;81.22;99220.50;5013652;28;20499;-65
2022/12/13 01:29:50;;;;;;;0.60;0.60;;;;;;;-1.80;81.10;99225.28;5013918;28;20050;-65
2022/12/13 01:32:19;;;;;;;0.70;0.70;;;;;;;-1.88;80.79;99222.47;5013651;28;20124;-66
2022/12/13 01:34:49;;;;;;;0.90;0.90;;;;;;;-1.97;80.97;99222.09;5013646;28;20488;-66
2022/12/13 01:37:19;;;;;;;1.17;1.17;;;;;;;-2.01;80.81;99220.25;5013537;28;20096;-66
2022/12/13 01:39:53;;;;;;;1.75;1.65;;;;;;;-2.10;80.98;99220.75;5013849;28;20050;-66
2022/12/13 01:42:26;;;;;;;2.15;1.65;;;;;;;-2.13;80.90;99229.75;5013455;28;20046;-65
2022/12/13 01:45:02;;;;;;;0.70;0.70;;;;;;;-2.26;80.64;99233.41;5013423;28;20052;-66
2022/12/13 01:47:37;;;;;;;0.75;0.73;;;;;;;-2.38;81.08;99244.50;5013614;28;20081;-65
2022/12/13 01:50:12;;;;;;;0.50;0.50;;;;;;;-2.44;80.89;99246.72;5013239;28;20050;-66
2022/12/13 01:52:42;;;;;;;0.60;0.60;;;;;;;-2.45;80.96;99247.53;5013695;28;20054;-65
2022/12/13 01:55:16;;;;;;;1.05;1.05;;;;;;;-2.58;80.94;99242.78;5013386;28;20046;-65
2022/12/13 01:57:49;;;;;;;2.17;1.77;;;;;;;-2.60;81.14;99239.38;5013365;28;20054;-65
2022/12/13 02:00:18;;;;;;;0.70;0.70;;;;;;;-2.60;81.24;99235.22;5013688;28;20134;-65
2022/12/13 02:02:48;;;;;;;3.22;2.95;;;;;;;-2.58;81.36;99232.78;5013218;28;20042;-65
2022/12/13 02:05:25;;;;;;;2.85;2.58;;;;;;;-2.67;81.30;99234.91;5016356;28;20084;-65
2022/12/13 02:07:57;;;;;;;1.10;1.05;;;;;;;-2.74;81.01;99236.28;5018118;28;20064;-65
2022/12/13 02:10:29;;;;;;;3.80;1.27;;;;;;;-2.75;80.99;99235.41;5016950;28;20060;-64
2022/12/13 02:12:57;;;;;;;1.85;1.77;;;;;;;-2.69;81.23;99239.84;5017000;28;20533;-65
2022/12/13 02:15:31;;;;;;;0.73;0.70;;;;;;;-2.69;81.39;99242.34;5017174;28;20453;-65
2022/12/13 02:18:17;;;;;;;1.98;1.88;;;;;;;-2.81;80.91;99245.13;4999507;28;20054;-65
2022/12/13 02:21:03;;;;;;;1.80;1.70;;;;;;;-2.92;80.71;99246.28;5016740;28;20042;-65
2022/12/13 02:23:59;;;;;;;0.88;0.88;;;;;;;-3.06;81.04;99247.31;5017077;28;20049;-65
2022/12/13 02:26:58;;;;;;;4.80;1.27;;;;;;;-3.09;81.55;99246.31;5016929;28;20646;-64
2022/12/13 02:29:55;;;;;;;0.85;0.85;;;;;;;-3.18;80.79;99231.78;5016617;28;20092;-65
2022/12/13 02:32:32;;;;;;;0.90;0.90;;;;;;;-3.07;81.30;99245.59;4999074;28;20042;-65
2022/12/13 02:35:06;;;;;;;1.05;1.05;;;;;;;-3.23;81.15;99243.19;5016511;28;20140;-66
2022/12/13 02:37:48;;;;;;;0.50;0.50;;;;;;;-3.38;81.24;99242.47;5016513;28;20056;-65
2022/12/13 02:40:23;;;;;;;0.52;0.52;;;;;;;-3.43;81.10;99234.78;5016430;28;20058;-65
2022/12/13 02:43:00;;;;;;;0.82;0.82;;;;;;;-3.44;81.01;99244.69;5016316;28;20049;-65
2022/12/13 02:45:34;;;;;;;1.23;1.23;;;;;;;-3.39;81.23;99245.78;5016938;28;20129;-64
2022/12/13 02:48:08;;;;;;;0.82;0.73;;;;;;;-3.23;81.20;99245.69;5016328;28;20045;-64
2022/12/13 02:50:39;;;;;;;0.43;0.43;;;;;;;-3.18;81.70;99246.75;5015887;28;20458;-64
2022/12/13 02:53:09;;;;;;;0.85;0.85;;;;;;;-3.10;81.93;99245.47;5016149;28;20107;-64
2022/12/13 02:55:38;;;;;;;0.57;0.57;;;;;;;-3.12;81.61;99254.50;5016141;28;20050;-65
2022/12/13 02:58:07;;;;;;;2.08;1.98;;;;;;;-3.23;81.74;99247.31;5016362;28;20161;-65
2022/12/13 03:00:46;;;;;;;1.13;1.13;;;;;;;-3.22;81.63;99262.38;5016078;28;20049;-64
2022/12/13 03:03:28;;;;;;;4.60;2.43;;;;;;;-3.22;82.27;99254.91;5015938;28;20057;-63
2022/12/13 03:08:55;;;;;;;2.05;1.95;;;;;;;-3.18;82.50;99251.75;5015947;28;20050;-63
2022/12/13 03:14:11;;;;;;;0.52;0.52;;;;;;;-3.08;82.52;99258.88;5016103;28;20057;-64
2022/12/13 03:16:45;;;;;;;1.65;1.55;;;;;;;-2.97;82.65;99254.34;5015054;28;20061;-63
2022/12/13 03:19:15;;;;;;;0.57;0.57;;;;;;;-2.93;82.46;99253.72;5015665;28;20054;-65
2022/12/13 03:21:46;;;;;;;2.17;2.05;;;;;;;-2.94;82.31;99247.88;5015581;28;20042;-65
2022/12/13 03:24:18;;;;;;;0.55;0.55;;;;;;;-2.93;82.80;99249.56;5015568;28;20056;-65
2022/12/13 03:26:48;;;;;;;1.90;1.80;;;;;;;-2.95;82.57;99256.13;5015534;28;20046;-67
2022/12/13 03:29:18;;;;;;;0.98;0.95;;;;;;;-3.02;82.58;99249.16;5015839;28;20054;-66
2022/12/13 03:31:52;;;;;;;1.75;0.93;;;;;;;-2.89;82.66;99256.41;5015392;28;20056;-64
2022/12/13 03:34:22;;;;;;;1.58;1.50;;;;;;;-2.88;82.74;99258.09;5015671;28;20038;-65
2022/12/13 03:36:51;;;;;;;0.60;0.60;;;;;;;-3.03;82.56;99257.44;5015364;28;20050;-64
2022/12/13 03:39:21;;;;;;;1.50;1.40;;;;;;;-3.01;82.99;99260.84;5015243;28;20046;-65
2022/12/13 03:41:50;;;;;;;0.65;0.65;;;;;;;-2.94;83.08;99270.34;5015101;28;20042;-65
2022/12/13 03:44:19;;;;;;;1.10;1.05;;;;;;;-2.90;83.04;99263.81;5016052;28;20046;-65
2022/12/13 03:46:48;;;;;;;0.47;0.47;;;;;;;-2.94;83.13;99267.84;5015746;28;20141;-65
2022/12/13 03:49:17;;;;;;;0.90;0.90;;;;;;;-2.92;82.68;99276.25;5014839;28;20050;-64
2022/12/13 03:51:47;;;;;;;1.07;1.07;;;;;;;-2.87;83.08;99274.81;5015168;28;20603;-65
2022/12/13 03:54:17;;;;;;;2.08;1.80;;;;;;;-2.79;83.08;99265.19;5015037;28;20049;-65
2022/12/13 03:56:46;;;;;;;1.45;1.38;;;;;;;-2.69;82.99;99264.81;5014980;28;20092;-64
2022/12/13 03:59:14;;;;;;;2.10;1.90;;;;;;;-2.63;82.73;99269.19;5014892;28;20053;-64
2022/12/13 04:01:43;;;;;;;4.13;3.40;;;;;;;-2.58;83.32;99267.75;5014772;28;20042;-65
2022/12/13 04:04:12;;;;;;;4.23;3.77;;;;;;;-2.54;83.15;99264.63;5015394;28;20034;-66
2022/12/13 04:06:40;;;;;;;1.88;1.77;;;;;;;-2.49;83.39;99266.50;5014759;28;20034;-65
2022/12/13 04:09:10;;;;;;;3.50;3.30;;;;;;;-2.50;83.20;99261.47;5014740;28;20038;-65
2022/12/13 04:14:18;;;;;;;1.42;1.33;;;;;;;-2.52;83.53;99248.06;5014667;28;20041;-65
2022/12/13 04:16:51;;;;;;;0.70;0.70;;;;;;;-2.43;83.62;99263.44;4997365;28;20472;-64
2022/12/13 04:19:20;;;;;;;0.85;0.85;;;;;;;-2.33;83.23;99263.03;5014546;28;20534;-64
2022/12/13 04:21:52;;;;;;;5.25;2.97;;;;;;;-2.26;83.14;99252.53;5014484;28;20074;-64
2022/12/13 04:24:24;;;;;;;4.68;3.22;;;;;;;-2.20;83.19;99260.25;5014842;28;20076;-64
2022/12/13 04:27:00;;;;;;;1.63;1.52;;;;;;;-2.21;83.79;99256.06;5014174;28;20100;-64
2022/12/13 04:29:29;;;;;;;0.57;0.57;;;;;;;-2.18;83.74;99266.19;5014107;28;20038;-64
2022/12/13 04:32:03;;;;;;;1.05;1.05;;;;;;;-2.12;83.79;99266.44;5014636;28;20412;-65
2022/12/13 04:34:32;;;;;;;2.17;2.05;;;;;;;-2.05;83.56;99261.78;5014600;28;20057;-64
2022/12/13 04:37:05;;;;;;;0.50;0.50;;;;;;;-1.98;83.94;99260.38;5014281;28;20546;-64
2022/12/13 04:39:35;;;;;;;2.23;2.13;;;;;;;-1.89;83.90;99259.88;5014219;28;20056;-64
2022/12/13 04:42:04;;;;;;;1.98;1.88;;;;;;;-1.85;83.57;99256.75;5014180;28;20037;-64
2022/12/13 04:44:33;;;;;;;1.70;1.60;;;;;;;-1.80;83.68;99256.13;5014425;28;20510;-64
2022/12/13 04:47:05;;;;;;;0.52;0.52;;;;;;;-1.74;83.53;99255.53;5014120;28;20046;-65
2022/12/13 04:49:34;;;;;;;1.05;1.05;;;;;;;-1.74;83.45;99258.88;5013818;28;20145;-65
2022/12/13 04:52:03;;;;;;;1.65;1.55;;;;;;;-1.72;83.34;99259.78;5014360;28;20050;-64
2022/12/13 04:54:32;;;;;;;1.20;0.90;;;;;;;-1.70;83.36;99254.84;5013955;28;20060;-64
2022/12/13 04:57:07;;;;;;;6.25;1.85;;;;;;;-1.64;83.29;99263.47;5014057;28;20045;-65
2022/12/13 04:59:37;;;;;;;3.78;2.60;;;;;;;-1.63;82.93;99256.81;5014227;28;20133;-64
2022/12/13 05:02:07;;;;;;;0.82;0.82;;;;;;;-1.64;83.17;99262.59;4997143;28;20535;-64
2022/12/13 05:04:36;;;;;;;1.30;1.20;;;;;;;-1.64;82.96;99257.59;5014231;28;20104;-64
2022/12/13 05:07:05;;;;;;;1.40;1.30;;;;;;;-1.65;82.98;99261.75;5013842;28;20137;-64
2022/12/13 05:09:33;;;;;;;0.70;0.70;;;;;;;-1.64;82.77;99258.47;5013813;28;20133;-64
2022/12/13 05:12:02;;;;;;;2.80;2.30;;;;;;;-1.59;82.85;99266.16;5014331;28;20473;-65
2022/12/13 05:14:32;;;;;;;2.40;2.30;;;;;;;-1.59;82.93;99267.00;5013708;28;20504;-64
2022/12/13 05:17:01;;;;;;;0.52;0.52;;;;;;;-1.59;83.14;99262.00;5013725;28;20077;-65
2022/12/13 05:19:30;;;;;;;2.10;2.00;;;;;;;-1.59;83.01;99261.16;5013703;28;20041;-65
2022/12/13 05:21:59;;;;;;;9.85;4.35;;;;;;;-1.60;83.19;99256.94;5013698;28;20046;-64
2022/12/13 05:24:30;;;;;;;2.15;2.05;;;;;;;-1.57;83.27;99260.41;5013583;28;20053;-64
2022/12/13 05:26:59;;;;;;;0.57;0.57;;;;;;;-1.53;83.25;99267.25;5013927;28;20416;-64
2022/12/13 05:29:28;;;;;;;2.80;2.42;;;;;;;-1.52;83.08;99251.44;5013591;28;20045;-64
2022/12/13 05:31:58;;;;;;;1.02;1.02;;;;;;;-1.49;83.11;99259.06;4995970;28;20038;-65
2022/12/13 05:34:27;;;;;;;1.08;1.02;;;;;;;-1.50;82.92;99254.88;5013601;28;20129;-65
2022/12/13 05:36:56;;;;;;;0.90;0.90;;;;;;;-1.49;82.80;99259.06;4996276;28;20515;-65
2022/12/13 05:39:25;;;;;;;1.40;1.30;;;;;;;-1.54;82.75;99260.56;5015576;28;20275;-65
2022/12/13 05:41:59;;;;;;;2.70;1.00;;;;;;;-1.56;82.92;99267.09;5017840;28;20054;-65
2022/12/13 05:44:31;;;;;;;1.75;1.65;;;;;;;-1.65;82.58;99270.88;5017460;28;20602;-65
2022/12/13 05:47:01;;;;;;;0.50;0.50;;;;;;;-1.64;82.51;99268.47;5017421;28;20129;-65
2022/12/13 05:49:31;;;;;;;0.63;0.63;;;;;;;-1.66;82.85;99274.19;5017133;28;20105;-65
2022/12/13 05:51:59;;;;;;;1.17;1.15;;;;;;;-1.69;82.73;99264.94;5017623;28;20054;-65
2022/12/13 05:54:28;;;;;;;2.45;2.17;;;;;;;-1.80;82.77;99251.13;5017558;28;20108;-65
2022/12/13 05:56:57;;;;;;;1.90;1.80;;;;;;;-1.71;82.95;99263.16;5017202;28;20046;-65
2022/12/13 05:59:25;;;;;;;1.37;1.27;;;;;;;-1.63;82.86;99269.34;5017140;28;20046;-65
2022/12/13 06:01:54;;;;;;;1.33;1.23;;;;;;;-1.60;82.90;99275.28;5017077;28;20038;-64
2022/12/13 06:04:24;;;;;;;1.30;1.20;;;;;;;-1.64;83.01;99272.63;5016957;28;20049;-64
2022/12/13 06:06:53;;;;;;;6.85;2.20;;;;;;;-1.65;83.18;99276.75;5017320;28;20477;-66
2022/12/13 06:09:22;;;;;;;1.45;1.35;;;;;;;-1.63;83.32;99280.16;4999822;28;20050;-65
2022/12/13 06:11:51;;;;;;;0.90;0.90;;;;;;;-1.62;83.38;99274.38;5016878;28;20108;-65
2022/12/13 06:14:29;;;;;;;2.10;2.00;;;;;;;-1.64;83.45;99282.63;5016935;28;20045;-65
2022/12/13 06:16:57;;;;;;;1.40;1.33;;;;;;;-1.67;83.58;99278.34;5016837;28;20076;-64
2022/12/13 06:19:27;;;;;;;0.90;0.90;;;;;;;-1.64;83.98;99278.47;5016785;28;20046;-65
2022/12/13 06:21:56;;;;;;;1.58;1.48;;;;;;;-1.62;83.84;99281.88;5017284;28;20121;-65
2022/12/13 06:24:26;;;;;;;1.35;1.25;;;;;;;-1.61;83.70;99283.56;5016581;28;20088;-64
2022/12/13 06:26:55;;;;;;;1.25;1.23;;;;;;;-1.62;83.88;99286.88;5016977;28;20049;-65
2022/12/13 06:29:24;;;;;;;0.65;0.65;;;;;;;-1.55;84.24;99282.97;5016648;28;20038;-65
2022/12/13 06:31:54;;;;;;;;;;;;;;;-1.52;83.79;99286.47;5017276;28;20038;-65
2022/12/13 06:34:34;;;;;;;0.93;0.93;;;;;;;-1.51;83.86;99283.16;5016935;28;19957;-65
2022/12/13 06:37:05;;;;;;;0.80;0.80;;;;;;;-1.48;83.75;99285.78;5016743;28;20427;-65
2022/12/13 06:39:35;;;;;;;1.10;1.10;;;;;;;-1.45;83.52;99290.94;5016729;28;20073;-64
2022/12/13 06:42:05;;;;;;;1.73;1.60;;;;;;;-1.43;83.29;99289.34;5016348;28;20038;-65
2022/12/13 06:44:34;;;;;;;1.67;1.58;;;;;;;-1.40;83.17;99288.59;5016957;28;20469;-66
2022/12/13 06:47:05;;;;;;;1.15;1.15;;;;;;;-1.44;83.11;99291.78;5016609;28;20053;-65
2022/12/13 06:49:42;;;;;;;0.50;0.50;;;;;;;-1.49;82.99;99288.25;5016076;28;20132;-64
2022/12/13 06:52:14;;;;;;;0.60;0.60;;;;;;;-1.42;83.15;99295.19;5015471;28;20558;-65
2022/12/13 06:54:43;;;;;;;0.52;0.52;;;;;;;-1.44;82.91;99297.63;5016181;28;20052;-65
2022/12/13 06:57:13;;;;;;;1.60;1.50;;;;;;;-1.45;83.40;99305.94;5016361;28;20050;-65
2022/12/13 06:59:41;;;;;;;1.67;1.58;;;;;;;-1.43;83.31;99299.34;5016298;28;20492;-65
2022/12/13 07:02:11;;;;;;;1.38;1.27;;;;;;;-1.42;83.34;99296.03;5015991;28;20061;-65
2022/12/13 07:04:56;;;;;;;1.02;1.02;;;;;;;-1.32;83.40;99301.44;5015902;28;20053;-64
2022/12/13 07:07:25;;;;;;;2.63;1.60;;;;;;;-1.32;83.51;99307.28;5015949;28;20050;-64
2022/12/13 07:09:54;;;;;;;2.35;2.15;;;;;;;-1.34;83.55;99310.53;5015775;28;20034;-66
2022/12/13 07:12:23;;;;;;;0.98;0.98;;;;;;;-1.33;83.65;99310.56;5016082;28;20044;-65
2022/12/13 07:14:53;;;;;;;0.80;0.80;;;;;;;-1.38;83.64;99302.88;5016324;28;20089;-65
2022/12/13 07:17:22;;;;;;;1.55;1.45;;;;;;;-1.22;83.73;99323.53;5015948;28;20092;-66
2022/12/13 07:20:08;;;;;;;1.42;1.33;;;;;;;-1.16;83.44;99319.59;5015603;28;20092;-66
2022/12/13 07:22:37;;;;;;;1.30;1.20;;;;;;;-1.09;83.64;99315.69;5015684;28;20057;-66
2022/12/13 07:25:15;;;;;;;4.53;2.30;;;;;;;-1.08;83.39;99319.91;5015523;28;20084;-65
2022/12/13 07:27:58;;;;;;;1.77;1.67;;;;;;;-1.12;82.98;99315.56;5015773;28;20052;-65
2022/12/13 07:30:31;;;;;;;1.80;1.70;;;;;;;-1.06;83.04;99325.81;4998183;28;20049;-66
2022/12/13 07:33:01;;;;;;;0.95;0.95;;;;;;;-1.00;83.00;99328.56;5015664;28;20096;-65
2022/12/13 07:35:32;;;;;;;4.00;3.70;;;;;;;-0.92;83.07;99334.72;5015637;28;20064;-66
2022/12/13 07:38:06;;;;;;;0.70;0.70;;;;;;;-0.91;82.83;99321.41;5015296;28;20038;-65
2022/12/13 07:40:35;;;;;;;1.77;1.67;;;;;;;-0.72;82.31;99329.66;5015156;28;20034;-65
2022/12/13 07:43:04;;;;;;;1.63;1.52;;;;;;;-0.61;82.24;99332.59;5015464;28;20041;-65
2022/12/13 07:45:33;;;;;;;3.33;1.25;;;;;;;-0.60;81.84;99319.25;5015093;28;20133;-66
2022/12/13 07:48:07;;;;;;;0.80;0.80;;;;;;;-0.57;81.39;99324.38;5015045;28;20547;-65
2022/12/13 07:50:37;;;;;;;1.00;0.98;;;;;;;-0.58;80.35;99330.22;5015010;28;20077;-65
2022/12/13 07:53:07;;;;;;;0.80;0.80;;;;;;;-0.64;80.11;99327.44;5015081;28;20100;-66
2022/12/13 07:55:37;;;;;;;0.85;0.85;;;;;;;-0.71;79.30;99335.53;4997706;28;20492;-66
2022/12/13 07:58:08;;;;;;;1.00;1.00;;;;;;;-0.75;79.22;99328.72;5015335;28;20039;-65
2022/12/13 08:00:37;;;;;;;1.60;1.42;;;;;;;-0.76;78.34;99339.50;5014996;28;20061;-64
2022/12/13 08:03:06;;;;;;;0.70;0.70;;;;;;;-0.77;78.03;99345.34;5014929;28;20038;-65
2022/12/13 08:05:42;;;;;;;2.67;2.20;;;;;;;-0.82;77.52;99341.81;4997412;28;20042;-65
2022/12/13 08:08:11;;;;;;;1.85;1.75;;;;;;;-0.83;77.37;99345.94;5015169;28;20100;-65
2022/12/13 08:10:40;;;;;;;1.23;1.15;;;;;;;-0.85;76.81;99342.53;5014745;28;20052;-65
2022/12/13 08:13:09;;;;;;;0.60;0.60;;;;;;;-0.75;76.66;99346.25;5009706;28;20568;-65
2022/12/13 08:15:38;;;;;;;2.35;2.15;;;;;;;-0.67;76.13;99344.88;5003797;28;20557;-65
2022/12/13 08:18:07;;;;;;;0.90;0.88;;;;;;;-0.49;75.83;99348.09;4994987;28;20039;-65
2022/12/13 08:20:36;;;;;;;3.85;2.60;;;;;;;-0.41;75.69;99339.19;4995522;28;20038;-65
2022/12/13 08:23:06;;;;;;;0.82;0.82;;;;;;;-0.35;75.23;99351.94;4994852;28;20039;-65
2022/12/13 08:25:38;;;;;;;1.52;1.42;;;;;;;-0.30;74.76;99345.44;4977522;28;20046;-65
2022/12/13 08:28:06;;;;;;;0.98;0.98;;;;;;;-0.29;74.80;99347.13;4995107;28;20133;-65
2022/12/13 08:30:35;;;;;;;4.03;2.78;;;;;;;-0.29;73.99;99347.13;4994747;28;20050;-65
2022/12/13 08:33:04;;;;;;;5.15;2.92;;;;;;;-0.20;73.73;99342.47;4997445;28;20037;-66
2022/12/13 08:35:34;;;;;;;1.65;1.55;;;;;;;-0.10;73.60;99339.47;5003264;28;20065;-65
2022/12/13 08:38:03;;;;;;;4.60;2.40;;;;;;;0.02;73.45;99348.25;5003204;28;20546;-66
2022/12/13 08:40:33;;;;;;;1.35;1.25;;;;;;;0.15;73.06;99345.34;4977598;28;20050;-66
2022/12/13 08:43:02;;;;;;;0.93;0.93;;;;;;;0.21;72.78;99335.56;5004063;28;20104;-66
2022/12/13 08:45:33;;;;;;;1.10;1.10;;;;;;;0.29;72.30;99344.19;5014374;28;20416;-67
2022/12/13 08:48:02;;;;;;;1.15;1.15;;;;;;;0.30;71.24;99353.41;5014144;28;20050;-67
2022/12/13 08:50:31;;;;;;;2.55;1.98;;;;;;;0.40;71.37;99358.81;5013873;28;20137;-67
2022/12/13 08:52:59;;;;;;;3.10;1.13;;;;;;;0.41;70.98;99355.50;5014262;28;20507;-67
2022/12/13 08:55:28;;;;;;;4.45;1.17;;;;;;;0.44;69.84;99350.59;5014344;28;20562;-68
2022/12/13 08:58:07;;;;;;;0.65;0.65;;;;;;;0.48;69.77;99349.03;5014070;28;20392;-68
2022/12/13 09:00:39;;;;;;;0.60;0.60;;;;;;;0.63;69.38;99349.53;5003820;28;20042;-69
2022/12/13 09:03:08;;;;;;;2.70;1.50;;;;;;;0.66;68.29;99352.16;5013894;28;20111;-69
2022/12/13 09:05:45;;;;;;;0.50;0.50;;;;;;;0.65;68.10;99353.78;5014110;28;20400;-69
2022/12/13 09:08:14;;;;;;;0.85;0.85;;;;;;;0.62;67.62;99345.31;4996380;28;20049;-69
2022/12/13 09:10:59;;;;;;;0.70;0.70;;;;;;;0.77;67.05;99345.81;5011411;28;20042;-70
2022/12/13 09:13:31;;;;;;;0.52;0.52;;;;;;;0.62;66.81;99332.78;5002100;28;20052;-70
2022/12/13 09:16:05;;;;;;;0.70;0.70;;;;;;;0.62;65.69;99345.31;4983125;28;20049;-69
2022/12/13 09:18:42;;;;;;;0.82;0.63;;;;;;;0.61;66.11;99353.66;5002908;28;20057;-69
2022/12/13 09:21:13;;;;;;;1.67;1.58;;;;;;;0.65;65.30;99345.41;5011239;28;20141;-70
2022/12/13 09:23:49;;;;;;;1.43;1.33;;;;;;;0.72;65.24;99346.47;5014048;28;20228;-69
2022/12/13 09:26:18;;;;;;;1.98;1.65;;;;;;;0.74;64.61;99354.91;5013568;28;20291;-69
2022/12/13 09:28:54;;;;;;;2.28;1.58;;;;;;;0.83;64.09;99350.19;5012474;28;20113;-69
2022/12/13 09:31:23;;;;;;;0.70;0.70;;;;;;;0.81;64.67;99346.78;5013908;28;20120;-69
2022/12/13 09:33:51;;;;;;;1.03;1.03;;;;;;;0.76;63.98;99325.69;5013813;28;20054;-69
2022/12/13 09:36:21;;;;;;;0.60;0.60;;;;;;;0.77;63.76;99345.81;5013903;28;20077;-70
2022/12/13 09:38:52;;;;;;;0.50;0.50;;;;;;;0.67;63.26;99343.81;5012105;28;20044;-69
2022/12/13 09:41:25;;;;;;;0.65;0.65;;;;;;;0.63;63.74;99337.84;5013364;28;20049;-69
2022/12/13 09:44:03;;;;;;;0.80;0.80;;;;;;;0.53;63.55;99340.84;5007951;28;20045;-69
2022/12/13 09:46:35;;;;;;;0.73;0.73;;;;;;;0.64;63.05;99338.69;4995842;28;20038;-69
2022/12/13 09:49:17;;;;;;;0.85;0.85;;;;;;;0.78;63.23;99337.47;5013590;28;20069;-70
2022/12/13 09:51:54;;;;;;;0.60;0.60;;;;;;;0.91;63.06;99333.72;5013455;28;20053;-69
2022/12/13 09:54:40;;;;;;;0.60;0.60;;;;;;;0.96;63.25;99317.94;5012100;28;20103;-70
2022/12/13 09:57:19;;;;;;;0.82;0.82;;;;;;;1.01;63.13;99331.50;5013405;28;20096;-69
2022/12/13 10:00:05;;;;;;;1.20;1.15;;;;;;;1.00;62.73;99328.97;5007209;28;20042;-69
2022/12/13 10:02:45;;;;;;;1.17;1.13;;;;;;;1.19;62.95;99332.09;5005876;28;20547;-70
2022/12/13 10:05:20;;;;;;;0.60;0.60;;;;;;;1.15;62.38;99332.78;5013319;28;20100;-70
2022/12/13 10:08:08;;;;;;;0.65;0.65;;;;;;;1.11;62.58;99336.03;5013304;28;20057;-69
2022/12/13 10:10:36;;;;;;;1.00;0.90;;;;;;;1.21;62.22;99325.44;5011125;28;20496;-70
2022/12/13 10:13:15;;;;;;;0.70;0.70;;;;;;;1.14;61.03;99327.72;5013044;28;20129;-69
2022/12/13 10:15:51;;;;;;;0.75;0.75;;;;;;;1.01;60.74;99329.00;5006930;28;20141;-70
2022/12/13 10:18:31;;;;;;;0.50;0.50;;;;;;;1.02;61.67;99332.38;5013054;28;20389;-70
2022/12/13 10:21:02;;;;;;;0.60;0.60;;;;;;;1.01;60.59;99325.66;5013119;28;20053;-70
2022/12/13 10:23:31;;;;;;;1.02;1.02;;;;;;;1.01;61.29;99330.69;5013012;28;20109;-70
2022/12/13 10:26:22;;;;;;;1.05;0.95;;;;;;;1.06;60.73;99322.47;5015992;28;20066;-70
2022/12/13 10:29:03;;;;;;;0.77;0.77;;;;;;;1.26;60.62;99328.97;5015932;28;20523;-70
2022/12/13 10:31:41;;;;;;;0.70;0.70;;;;;;;1.46;61.10;99327.03;5016936;28;20053;-70
2022/12/13 10:34:22;;;;;;;0.50;0.50;;;;;;;1.33;60.55;99320.78;5016582;28;20054;-70
2022/12/13 10:36:51;;;;;;;1.15;1.13;;;;;;;1.18;60.29;99317.81;5016482;28;20049;-70
2022/12/13 10:39:39;;;;;;;0.60;0.60;;;;;;;1.04;60.02;99291.41;5016229;28;20518;-71
2022/12/13 10:42:13;;;;;;;1.52;1.42;;;;;;;1.14;59.92;99322.69;5009988;28;20046;-70
2022/12/13 10:45:14;;;;;;;2.05;1.40;;;;;;;1.33;60.60;99320.78;5006960;28;20062;-70
2022/12/13 10:47:46;;;;;;;0.98;0.98;;;;;;;1.27;60.24;99310.53;4999306;28;20047;-69
2022/12/13 10:50:24;;;;;;;2.08;0.95;;;;;;;1.50;60.25;99308.72;4996556;28;20530;-70
2022/12/13 10:52:55;;;;;;;2.05;1.85;;;;;;;1.68;60.07;99298.34;4996602;28;20046;-70
2022/12/13 10:55:28;;;;;;;1.05;1.05;;;;;;;1.78;59.32;99282.66;4996852;28;20038;-69
2022/12/13 10:58:01;;;;;;;0.70;0.70;;;;;;;2.04;59.46;99291.75;5003726;28;20050;-69
2022/12/13 11:00:34;;;;;;;1.27;1.17;;;;;;;2.10;58.16;99279.34;4981841;28;20049;-69
2022/12/13 11:03:05;;;;;;;1.70;1.60;;;;;;;2.07;58.43;99286.81;5005712;28;20431;-69
2022/12/13 11:05:36;;;;;;;5.25;0.98;;;;;;;2.30;59.08;99288.28;5004911;28;20070;-70
2022/12/13 11:08:16;;;;;;;0.65;0.65;;;;;;;2.06;57.74;99287.66;5005464;28;20042;-69
2022/12/13 11:10:46;;;;;;;0.50;0.50;;;;;;;1.79;58.23;99272.66;5006486;28;20042;-69
2022/12/13 11:13:28;;;;;;;0.70;0.70;;;;;;;2.12;58.63;99282.75;4998752;28;20043;-69
2022/12/13 11:15:56;;;;;;;0.60;0.60;;;;;;;2.33;57.42;99278.28;5002843;28;20053;-69
2022/12/13 11:18:32;;;;;;;0.60;0.60;;;;;;;2.50;58.25;99284.56;5015945;28;20041;-68
2022/12/13 11:21:03;;;;;;;1.23;1.13;;;;;;;2.62;57.28;99277.31;5015978;28;20058;-69
2022/12/13 11:23:35;;;;;;;1.42;1.33;;;;;;;2.58;56.95;99280.59;5009625;28;20050;-69
2022/12/13 11:26:10;;;;;;;0.52;0.52;;;;;;;2.15;56.81;99266.88;4996985;28;20054;-69
2022/12/13 11:28:58;;;;;;;0.50;0.50;;;;;;;2.36;57.40;99265.75;5014255;28;20042;-68
2022/12/13 11:31:36;;;;;;;1.20;1.10;;;;;;;2.43;57.02;99265.09;4992047;28;20046;-68
2022/12/13 11:34:18;;;;;;;0.60;0.60;;;;;;;2.63;57.58;99265.59;5010694;28;20046;-69
2022/12/13 11:36:54;;;;;;;0.60;0.60;;;;;;;2.75;56.89;99265.00;5014810;28;20042;-68
2022/12/13 11:39:29;;;;;;;0.70;0.70;;;;;;;2.76;56.24;99259.19;5007697;28;20046;-68
2022/12/13 11:42:05;;;;;;;0.90;0.90;;;;;;;2.90;56.68;99255.31;5015518;28;20045;-68
2022/12/13 11:44:43;;;;;;;0.60;0.60;;;;;;;2.89;56.51;99253.59;5013296;28;20484;-69
2022/12/13 11:47:24;;;;;;;1.02;1.02;;;;;;;2.65;56.66;99232.06;5012972;28;20060;-68
2022/12/13 11:49:57;;;;;;;0.70;0.70;;;;;;;2.90;55.85;99257.81;5011255;28;20053;-68
2022/12/13 11:52:30;;;;;;;0.63;0.63;;;;;;;2.77;55.50;99255.81;5004000;28;20524;-68
2022/12/13 11:55:02;;;;;;;1.13;1.02;;;;;;;2.63;55.47;99251.34;4996243;28;20030;-68
2022/12/13 11:57:42;;;;;;;0.88;0.88;;;;;;;2.97;55.10;99252.09;4995698;28;20069;-68
2022/12/13 12:00:24;;;;;;;0.98;0.98;;;;;;;3.24;54.92;99242.59;4995370;28;20050;-68
2022/12/13 12:03:15;;;;;;;1.35;1.25;;;;;;;3.93;54.57;99251.59;4995595;28;20050;-68
2022/12/13 12:05:52;;;;;;;0.40;0.40;;;;;;;4.56;53.63;99240.84;4995200;28;20057;-68
2022/12/13 12:08:32;;;;;;;0.40;0.40;;;;;;;5.03;52.54;99244.97;4977909;28;20586;-68